Time;durP1;ratioP1;P1;durP2;ratioP2;P2;SDS_P1;SDS_P2;PMS_P1;PMS_P2;Temp;Humidity;BMP_temperature;BMP_pressure;BME280_temperature;BME280_humidity;BME280_pressure;Samples;Min_cycle;Max_cycle;Signal;HPM_P1;HPM_P2
2022/02/09 00:01:16;;;;;;;8.88;7.97;;;;;;;7.77;79.12;100280.91;2618860;47;20035;-69
2022/02/09 00:03:52;;;;;;;7.68;6.97;;;;;;;7.77;78.96;100288.81;2619758;54;20031;-69
2022/02/09 00:06:39;;;;;;;9.70;7.10;;;;;;;7.77;78.89;100291.44;2619537;39;20429;-69
2022/02/09 00:09:12;;;;;;;8.25;6.82;;;;;;;7.76;78.96;100287.16;2622039;54;20038;-69
2022/02/09 00:11:46;;;;;;;8.27;7.32;;;;;;;7.72;79.03;100292.84;2622298;39;20441;-69
2022/02/09 00:14:26;;;;;;;;;;;;;;;7.72;79.26;100287.56;2620413;54;20037;-69
2022/02/09 00:17:18;;;;;;;9.57;7.15;;;;;;;7.64;79.32;100288.25;2620768;39;20370;-69
2022/02/09 00:20:08;;;;;;;6.28;5.68;;;;;;;7.67;79.09;100280.06;2619815;54;20045;-68
2022/02/09 00:22:50;;;;;;;8.95;6.20;;;;;;;7.70;79.36;100280.63;2618656;54;20042;-69
2022/02/09 00:26:26;;;;;;;7.60;6.80;;;;;;;7.70;79.08;100282.41;2617682;54;20565;-69
2022/02/09 00:28:51;;;;;;;7.47;6.55;;;;;;;7.69;79.34;100273.69;2618284;54;20031;-70
2022/02/09 00:37:29;;;;;;;;;;;;;;;7.73;79.00;100269.00;2617964;54;20031;-70
2022/02/09 00:40:15;;;;;;;10.07;6.78;;;;;;;7.65;78.96;100264.41;2619258;31;20414;-69
2022/02/09 00:43:30;;;;;;;10.25;6.47;;;;;;;7.63;78.92;100261.09;2618419;54;20042;-69
2022/02/09 01:00:04;;;;;;;7.93;5.70;;;;;;;7.59;79.19;100246.56;2618484;54;20549;-68
2022/02/09 01:41:03;;;;;;;5.95;5.00;;;;;;;7.48;79.76;100251.94;2618745;54;20066;-69
2022/02/09 01:56:57;;;;;;;5.18;4.68;;;;;;;7.60;79.35;100231.59;2621309;54;20045;-69
2022/02/09 01:59:27;;;;;;;5.50;4.70;;;;;;;7.60;79.54;100229.78;2621808;54;20069;-69
2022/02/09 02:01:57;;;;;;;5.53;4.88;;;;;;;7.61;79.36;100212.19;2624027;54;20038;-69
2022/02/09 02:04:29;;;;;;;5.10;4.60;;;;;;;7.66;79.56;100212.59;2623883;54;20034;-71
2022/02/09 02:06:59;;;;;;;6.20;5.30;;;;;;;7.65;79.49;100216.22;2624425;47;20038;-70
2022/02/09 02:09:33;;;;;;;7.72;5.13;;;;;;;7.65;79.09;100217.03;2624416;54;20030;-69
2022/02/09 02:12:09;;;;;;;6.63;4.65;;;;;;;7.67;78.98;100206.34;2622228;54;20061;-70
2022/02/09 02:14:43;;;;;;;5.78;4.60;;;;;;;7.72;79.32;100208.59;2622612;54;20030;-68
2022/02/09 02:17:19;;;;;;;4.78;4.20;;;;;;;7.75;78.83;100201.22;2623425;54;20038;-69
2022/02/09 02:19:57;;;;;;;5.30;4.80;;;;;;;7.79;78.67;100205.25;2624206;54;20030;-70
2022/02/09 02:22:45;;;;;;;5.90;4.82;;;;;;;7.76;78.71;100208.19;2624036;54;20041;-68
2022/02/09 02:28:32;;;;;;;6.38;5.28;;;;;;;7.80;78.33;100199.03;2624610;39;20383;-68
2022/02/09 02:31:26;;;;;;;;;;;;;;;7.74;78.77;100194.31;2623292;54;20038;-68
2022/02/09 02:37:22;;;;;;;5.70;4.65;;;;;;;7.70;78.26;100204.28;2622575;54;20030;-69
2022/02/09 02:40:14;;;;;;;6.03;4.63;;;;;;;7.74;78.28;100198.75;2623567;54;20042;-68
2022/02/09 02:59:34;;;;;;;5.53;4.18;;;;;;;7.68;78.75;100187.81;2625534;54;20038;-68
2022/02/09 03:10:46;;;;;;;5.45;4.50;;;;;;;7.77;78.32;100187.94;2623366;54;20081;-69
2022/02/09 03:13:22;;;;;;;5.65;4.70;;;;;;;7.80;78.51;100182.41;2623334;54;20022;-68
2022/02/09 03:15:57;;;;;;;4.30;3.90;;;;;;;7.82;78.22;100181.28;2622368;39;20409;-69
2022/02/09 03:18:51;;;;;;;5.53;4.45;;;;;;;7.79;77.67;100178.09;2622332;54;20018;-68
2022/02/09 03:21:33;;;;;;;5.38;4.30;;;;;;;7.74;78.08;100177.69;2622343;47;20525;-68
2022/02/09 03:24:17;;;;;;;4.95;4.43;;;;;;;7.68;77.68;100176.47;2621851;54;20114;-68
2022/02/09 03:43:15;;;;;;;6.40;4.57;;;;;;;7.58;78.43;100165.09;2625003;47;20042;-69
2022/02/09 03:48:56;;;;;;;5.50;4.95;;;;;;;7.55;78.42;100168.84;2623176;54;20568;-69
2022/02/09 03:51:45;;;;;;;7.90;5.53;;;;;;;7.53;78.55;100167.31;2624440;54;20038;-69
2022/02/09 03:54:24;;;;;;;6.75;5.00;;;;;;;7.54;78.20;100164.53;2623569;54;20031;-69
2022/02/09 03:57:00;;;;;;;8.07;4.88;;;;;;;7.58;78.41;100165.09;2624415;54;20023;-69
2022/02/09 03:59:33;;;;;;;5.35;4.70;;;;;;;7.54;78.14;100166.34;2625516;54;20530;-68
2022/02/09 04:02:07;;;;;;;6.10;4.57;;;;;;;7.53;78.04;100143.63;2625539;54;20581;-69
2022/02/09 04:04:37;;;;;;;5.03;4.45;;;;;;;7.52;78.57;100157.78;2623632;46;20034;-68
2022/02/09 04:07:11;;;;;;;7.18;4.93;;;;;;;7.52;78.74;100153.34;2619111;39;20453;-69
2022/02/09 04:09:46;;;;;;;7.75;5.10;;;;;;;7.57;78.09;100150.28;2618727;31;20486;-69
2022/02/09 04:12:29;;;;;;;5.88;4.90;;;;;;;7.53;78.12;100147.09;2618917;39;20430;-68
2022/02/09 04:15:13;;;;;;;6.60;5.25;;;;;;;7.53;78.27;100149.72;2618867;31;20500;-69
2022/02/09 04:17:59;;;;;;;6.43;5.00;;;;;;;7.53;78.55;100143.63;2618205;54;20034;-69
2022/02/09 04:22:24;;;;;;;9.43;5.65;;;;;;;7.52;78.54;100147.25;2617709;54;20125;-69
2022/02/09 04:37:00;;;;;;;8.23;6.13;;;;;;;7.65;78.37;100139.88;2619404;54;20565;-70
2022/02/09 04:39:35;;;;;;;10.55;5.70;;;;;;;7.67;78.18;100128.25;2621899;54;20039;-70
2022/02/09 04:42:35;;;;;;;8.50;5.65;;;;;;;7.66;78.05;100126.56;2621820;47;20023;-70
2022/02/09 04:45:34;;;;;;;7.88;6.50;;;;;;;7.61;78.24;100131.44;2622993;54;20030;-69
2022/02/09 04:48:26;;;;;;;7.40;6.10;;;;;;;7.57;78.46;100126.59;2623219;54;20035;-70
2022/02/09 04:51:00;;;;;;;8.90;6.43;;;;;;;7.50;78.49;100125.50;2623637;54;20034;-70
2022/02/09 04:56:26;;;;;;;9.05;5.82;;;;;;;7.38;78.38;100122.19;2622799;54;20073;-69
2022/02/09 04:59:07;;;;;;;;;;;;;;;7.36;78.85;100124.13;2624937;54;20607;-67
2022/02/09 05:02:03;;;;;;;6.35;4.90;;;;;;;7.39;78.53;100129.13;2624365;54;19946;-69
2022/02/09 05:04:52;;;;;;;9.63;6.07;;;;;;;7.48;78.71;100130.09;2623992;39;20434;-68
2022/02/09 05:18:41;;;;;;;7.45;5.10;;;;;;;7.51;78.08;100130.63;2618088;54;20042;-64
2022/02/09 05:21:50;;;;;;;6.97;5.78;;;;;;;7.51;78.49;100132.41;2618561;54;20549;-64
2022/02/09 05:24:36;;;;;;;7.47;5.32;;;;;;;7.51;79.00;100129.78;2618926;39;20437;-64
2022/02/09 05:27:17;;;;;;;6.90;5.75;;;;;;;7.54;78.35;100140.03;2618553;54;20085;-64
2022/02/09 05:29:46;;;;;;;8.93;5.63;;;;;;;7.57;78.74;100129.22;2619233;39;20425;-64
2022/02/09 05:32:16;;;;;;;8.30;5.35;;;;;;;7.58;78.83;100136.16;2618617;54;20018;-64
2022/02/09 05:34:46;;;;;;;7.78;5.57;;;;;;;7.60;78.17;100136.84;2618362;54;20034;-64
2022/02/09 05:37:15;;;;;;;10.52;5.55;;;;;;;7.62;78.58;100141.00;2618540;54;20592;-65
2022/02/09 05:39:47;;;;;;;9.82;5.60;;;;;;;7.68;78.54;100142.25;2618560;54;20122;-65
2022/02/09 05:42:17;;;;;;;9.60;5.97;;;;;;;7.67;78.47;100140.56;2618477;54;20023;-65
2022/02/09 05:44:46;;;;;;;11.45;6.28;;;;;;;7.70;78.63;100141.13;2618376;54;20033;-65
2022/02/09 05:50:21;;;;;;;9.07;5.78;;;;;;;7.66;77.91;100137.09;2617518;39;20430;-65
2022/02/09 05:53:05;;;;;;;9.27;5.25;;;;;;;7.67;78.25;100138.78;2618654;54;20029;-64
2022/02/09 05:55:46;;;;;;;11.23;6.03;;;;;;;7.64;77.73;100131.16;2618545;54;20073;-65
2022/02/09 05:58:32;;;;;;;12.27;5.53;;;;;;;7.62;77.66;100134.91;2620952;54;20030;-65
2022/02/09 06:01:04;;;;;;;8.30;5.45;;;;;;;7.61;78.04;100135.88;2623785;54;20041;-65
2022/02/09 06:03:34;;;;;;;10.98;5.78;;;;;;;7.63;77.92;100133.91;2623093;54;20027;-66
2022/02/09 06:06:04;;;;;;;10.50;6.53;;;;;;;7.61;78.04;100134.06;2622783;54;20030;-65
2022/02/09 06:08:34;;;;;;;11.80;5.75;;;;;;;7.65;77.65;100137.25;2620815;39;20429;-65
2022/02/09 06:11:23;;;;;;;10.77;5.90;;;;;;;7.62;78.04;100133.09;2618631;54;20031;-66
2022/02/09 06:14:22;;;;;;;12.20;5.90;;;;;;;7.68;77.77;100148.34;2618527;54;20033;-65
2022/02/09 06:19:49;;;;;;;12.20;6.70;;;;;;;7.72;77.64;100141.00;2618056;54;20026;-64
2022/02/09 06:22:19;;;;;;;8.77;6.32;;;;;;;7.71;77.59;100139.31;2621431;54;20049;-65
2022/02/09 06:24:48;;;;;;;11.60;7.63;;;;;;;7.67;77.85;100145.81;2621996;54;20038;-65
2022/02/09 06:27:21;;;;;;;15.18;6.60;;;;;;;7.72;77.74;100145.44;2622930;54;20026;-64
2022/02/09 06:29:51;;;;;;;16.00;6.55;;;;;;;7.76;77.40;100136.28;2618601;54;20054;-66
2022/02/09 06:32:21;;;;;;;10.55;5.97;;;;;;;7.77;77.45;100140.56;2618691;54;20050;-63
2022/02/09 06:34:51;;;;;;;14.82;7.20;;;;;;;7.81;77.24;100142.75;2618425;54;20453;-64
2022/02/09 06:37:25;;;;;;;13.98;7.82;;;;;;;7.80;77.52;100135.03;2618638;39;20407;-65
2022/02/09 06:40:00;;;;;;;11.63;7.47;;;;;;;7.78;77.18;100131.69;2618546;54;20027;-64
2022/02/09 06:42:34;;;;;;;16.23;8.35;;;;;;;7.79;77.13;100128.06;2618731;39;20418;-65
2022/02/09 06:45:09;;;;;;;13.23;7.10;;;;;;;7.81;77.05;100131.41;2618168;54;20034;-65
2022/02/09 06:47:40;;;;;;;12.18;7.72;;;;;;;7.77;77.12;100122.13;2618319;39;20446;-65
2022/02/09 06:50:16;;;;;;;9.95;6.63;;;;;;;7.73;76.99;100124.22;2617775;47;20035;-65
2022/02/09 06:52:56;;;;;;;13.23;5.95;;;;;;;7.70;76.80;100122.69;2618084;54;20034;-65
2022/02/09 06:55:25;;;;;;;15.38;6.35;;;;;;;7.67;77.19;100124.78;2618128;54;20030;-65
2022/02/09 06:58:15;;;;;;;10.98;6.15;;;;;;;7.68;76.83;100131.72;2618612;39;20510;-66
2022/02/09 07:00:44;;;;;;;15.82;7.10;;;;;;;7.64;77.26;100122.44;2618225;54;20038;-65
2022/02/09 07:03:14;;;;;;;12.52;7.00;;;;;;;7.70;77.28;100127.94;2617975;54;20030;-65
2022/02/09 07:05:44;;;;;;;13.07;7.40;;;;;;;7.69;77.09;100122.84;2618029;54;20068;-65
2022/02/09 07:08:14;;;;;;;13.95;7.43;;;;;;;7.75;76.87;100124.06;2618629;54;20030;-65
2022/02/09 07:10:44;;;;;;;11.95;7.88;;;;;;;7.78;77.11;100123.78;2618350;54;20026;-65
2022/02/09 07:13:18;;;;;;;10.52;6.00;;;;;;;7.77;77.18;100130.03;2622804;54;20030;-65
2022/02/09 07:15:50;;;;;;;14.13;7.70;;;;;;;7.77;77.01;100125.59;2624418;54;20034;-65
2022/02/09 07:18:23;;;;;;;12.88;7.18;;;;;;;7.83;76.98;100129.44;2627149;39;20344;-66
2022/02/09 07:21:00;;;;;;;13.45;7.03;;;;;;;7.87;76.72;100129.00;2624085;54;20062;-65
2022/02/09 07:23:34;;;;;;;13.88;6.20;;;;;;;7.85;76.73;100136.25;2623950;47;20037;-65
2022/02/09 07:26:08;;;;;;;;;;;;;;;7.81;76.44;100123.50;2624117;54;20031;-65
2022/02/09 07:28:41;;;;;;;12.73;6.22;;;;;;;7.87;76.70;100130.81;2623600;54;19938;-65
2022/02/09 07:31:12;;;;;;;13.80;7.65;;;;;;;7.92;76.52;100131.25;2623872;54;20054;-65
2022/02/09 07:33:45;;;;;;;13.38;7.93;;;;;;;7.94;76.10;100130.09;2621522;54;20018;-65
2022/02/09 07:36:16;;;;;;;12.77;6.85;;;;;;;7.92;76.16;100126.81;2619033;54;20548;-65
2022/02/09 07:38:46;;;;;;;14.00;6.25;;;;;;;7.98;76.31;100127.19;2619324;54;20026;-65
2022/02/09 07:41:18;;;;;;;8.40;5.38;;;;;;;7.96;75.82;100124.72;2617954;54;20034;-65
2022/02/09 07:44:03;;;;;;;9.90;5.45;;;;;;;7.98;75.86;100129.84;2617978;54;20046;-65
2022/02/09 07:46:55;;;;;;;10.15;7.10;;;;;;;8.04;76.06;100127.47;2618289;54;20034;-66
2022/02/09 07:49:37;;;;;;;8.70;5.25;;;;;;;8.09;75.71;100133.13;2618458;54;20035;-65
2022/02/09 07:52:12;;;;;;;12.93;5.55;;;;;;;8.06;75.78;100129.94;2618219;54;20033;-64
2022/02/09 07:54:42;;;;;;;9.63;5.70;;;;;;;8.09;75.80;100124.41;2618341;54;20035;-64
2022/02/09 07:57:11;;;;;;;9.93;5.28;;;;;;;8.14;75.72;100119.53;2618447;54;20077;-66
2022/02/09 07:59:43;;;;;;;10.65;5.82;;;;;;;8.23;75.25;100131.00;2618166;54;20031;-64
2022/02/09 08:02:13;;;;;;;8.80;5.30;;;;;;;8.19;75.49;100133.91;2618180;54;20065;-65
2022/02/09 08:04:43;;;;;;;12.88;5.30;;;;;;;8.23;74.95;100123.91;2617799;54;20030;-64
2022/02/09 08:07:13;;;;;;;12.07;5.93;;;;;;;8.30;74.93;100124.16;2617738;50;20035;-65
2022/02/09 08:09:44;;;;;;;15.10;5.93;;;;;;;8.32;75.12;100117.75;2618064;54;20034;-64
2022/02/09 08:12:35;;;;;;;11.80;6.63;;;;;;;8.35;74.99;100122.75;2618183;54;20026;-64
2022/02/09 08:21:42;;;;;;;14.73;5.95;;;;;;;8.54;74.42;100106.03;2618324;54;20030;-65
2022/02/09 08:24:00;;;;;;;9.18;5.07;;;;;;;8.63;74.26;100112.22;2619162;54;20054;-64
2022/02/09 08:27:05;;;;;;;13.93;5.75;;;;;;;8.64;74.10;100098.06;2621406;54;20045;-64
2022/02/09 08:29:46;;;;;;;9.40;5.68;;;;;;;8.73;73.91;100101.63;2624054;39;20450;-64
2022/02/09 08:32:40;;;;;;;13.15;6.20;;;;;;;8.77;73.58;100097.69;2622798;47;20023;-63
2022/02/09 08:35:11;;;;;;;11.63;6.82;;;;;;;8.81;73.92;100096.44;2622044;54;20034;-63
2022/02/09 08:37:40;;;;;;;9.57;5.28;;;;;;;8.87;73.43;100094.03;2623066;54;20031;-64
2022/02/09 08:40:14;;;;;;;23.50;6.70;;;;;;;8.96;73.04;100094.94;2623132;54;20031;-64
2022/02/09 08:42:43;;;;;;;11.52;5.35;;;;;;;8.93;72.40;100090.78;2622902;54;20038;-63
2022/02/09 08:45:13;;;;;;;8.45;5.28;;;;;;;9.03;72.61;100084.63;2622100;39;20490;-63
2022/02/09 08:48:01;;;;;;;11.95;5.50;;;;;;;9.10;72.30;100078.59;2621521;54;20026;-63
2022/02/09 08:50:31;;;;;;;10.45;6.05;;;;;;;9.11;72.33;100082.88;2620960;54;20033;-65
2022/02/09 08:53:01;;;;;;;8.45;6.00;;;;;;;9.10;71.50;100078.59;2619226;54;20080;-64
2022/02/09 08:55:30;;;;;;;10.20;6.10;;;;;;;9.07;71.40;100081.53;2618753;54;20027;-64
2022/02/09 08:58:00;;;;;;;14.30;5.88;;;;;;;9.04;71.04;100081.81;2618912;54;20041;-64
2022/02/09 09:00:33;;;;;;;12.00;5.47;;;;;;;9.05;71.25;100080.00;2618737;54;20038;-64
2022/02/09 09:03:14;;;;;;;11.63;6.20;;;;;;;9.07;70.83;100080.69;2618668;54;20023;-62
2022/02/09 09:05:47;;;;;;;11.00;6.45;;;;;;;9.14;71.05;100081.72;2617881;54;20070;-62
2022/02/09 09:08:38;;;;;;;8.25;5.10;;;;;;;9.17;70.64;100082.25;2618633;54;20045;-63
2022/02/09 09:58:10;;;;;;;8.95;3.20;;;;;;;10.27;66.51;100043.81;2618619;54;20045;-64
2022/02/09 10:01:18;;;;;;;6.20;3.63;;;;;;;10.30;66.88;100046.16;2617759;54;20558;-64
2022/02/09 10:04:08;;;;;;;6.72;3.40;;;;;;;10.38;66.84;100048.00;2619190;39;20513;-62
2022/02/09 10:31:57;;;;;;;9.93;4.13;;;;;;;10.69;64.00;100040.28;2618979;39;20446;-64
2022/02/09 10:34:30;;;;;;;14.98;6.28;;;;;;;10.73;64.82;100027.56;2618057;54;20030;-65
2022/02/09 10:37:02;;;;;;;7.80;3.77;;;;;;;10.72;64.30;100026.72;2618618;54;20034;-64
2022/02/09 10:39:44;;;;;;;19.38;9.40;;;;;;;10.75;64.81;100020.31;2618478;54;20050;-62
2022/02/09 10:42:20;;;;;;;14.55;6.63;;;;;;;10.85;64.21;100010.38;2618551;54;20030;-62
2022/02/09 10:44:54;;;;;;;6.15;3.50;;;;;;;10.89;64.30;100007.22;2618308;54;20046;-63
2022/02/09 10:47:25;;;;;;;10.02;6.13;;;;;;;10.94;64.39;100004.13;2618298;54;20045;-64
2022/02/09 10:50:18;;;;;;;8.23;2.90;;;;;;;10.96;63.78;100002.13;2618423;54;20093;-63
2022/02/09 10:52:50;;;;;;;8.02;2.78;;;;;;;11.06;63.64;99996.63;2617575;54;20525;-65
2022/02/09 10:55:31;;;;;;;5.30;2.90;;;;;;;11.06;63.17;99989.56;2617547;47;20034;-64
2022/02/09 10:58:06;;;;;;;9.85;4.45;;;;;;;11.14;63.54;99991.34;2618172;54;20038;-64
2022/02/09 11:00:36;;;;;;;8.15;3.03;;;;;;;11.27;63.63;99983.75;2617354;47;20041;-64
2022/02/09 11:03:05;;;;;;;5.30;3.30;;;;;;;11.38;63.43;99979.91;2618260;54;20034;-64
2022/02/09 11:05:35;;;;;;;7.20;2.47;;;;;;;11.37;62.76;99984.38;2618034;54;20141;-64
2022/02/09 11:08:05;;;;;;;3.75;1.85;;;;;;;11.40;62.72;99975.28;2618946;54;20027;-64
2022/02/09 11:10:35;;;;;;;5.40;2.45;;;;;;;11.44;62.33;99981.06;2618981;39;20314;-64
2022/02/09 11:13:09;;;;;;;5.65;2.47;;;;;;;11.48;62.48;99977.91;2620502;54;20081;-65
2022/02/09 11:15:41;;;;;;;5.78;2.33;;;;;;;11.51;62.54;99972.28;2622663;54;20015;-64
2022/02/09 11:18:15;;;;;;;4.60;2.42;;;;;;;11.54;62.29;99971.09;2619524;54;20034;-64
2022/02/09 11:21:11;;;;;;;4.72;2.30;;;;;;;11.67;62.06;99960.78;2618253;54;20038;-64
2022/02/09 11:23:44;;;;;;;6.15;2.00;;;;;;;11.72;61.67;99958.44;2618632;39;20419;-65
2022/02/09 11:26:32;;;;;;;8.27;2.20;;;;;;;11.78;61.70;99946.34;2617922;54;20038;-64
2022/02/09 11:32:19;;;;;;;9.35;2.28;;;;;;;11.86;60.84;99943.69;2617924;54;20023;-62
2022/02/09 11:38:19;;;;;;;9.43;2.28;;;;;;;11.90;60.83;99937.03;2618396;54;20030;-63
2022/02/09 11:40:56;;;;;;;5.63;2.22;;;;;;;11.90;60.66;99939.69;2618980;31;20510;-66
2022/02/09 11:43:52;;;;;;;5.57;2.50;;;;;;;11.86;60.66;99933.91;2618269;54;20037;-64
2022/02/09 11:47:16;;;;;;;4.43;2.40;;;;;;;11.89;60.54;99932.75;2618242;31;20443;-65
2022/02/09 11:52:50;;;;;;;3.70;2.10;;;;;;;12.10;60.04;99924.19;2618052;54;20038;-64
2022/02/09 11:58:52;;;;;;;6.15;2.40;;;;;;;12.28;59.91;99919.41;2618183;54;20092;-63
2022/02/09 12:10:27;;;;;;;7.15;2.20;;;;;;;12.17;59.13;99908.41;2617330;54;20118;-64
2022/02/09 12:13:08;;;;;;;5.72;1.85;;;;;;;12.22;58.54;99916.66;2619095;54;20030;-65
2022/02/09 12:18:58;;;;;;;4.50;2.05;;;;;;;12.13;58.58;99898.16;2623242;54;20030;-63
2022/02/09 12:21:44;;;;;;;8.10;2.38;;;;;;;12.19;58.39;99893.97;2623472;54;20044;-64
2022/02/09 12:24:31;;;;;;;5.07;2.33;;;;;;;12.23;58.48;99900.56;2623182;54;20077;-64
2022/02/09 12:27:04;;;;;;;3.60;1.95;;;;;;;12.32;58.54;99896.03;2623420;54;20034;-64
2022/02/09 12:29:35;;;;;;;3.80;2.20;;;;;;;12.35;57.94;99891.19;2623087;52;20031;-64
2022/02/09 12:32:26;;;;;;;6.55;1.80;;;;;;;12.31;57.66;99886.41;2623888;54;20022;-65
2022/02/09 12:34:57;;;;;;;5.47;1.83;;;;;;;12.28;57.21;99887.59;2623002;47;20026;-64
2022/02/09 12:37:29;;;;;;;6.80;2.60;;;;;;;12.30;57.57;99882.13;2623044;54;20023;-64
2022/02/09 12:40:05;;;;;;;4.07;1.90;;;;;;;12.28;57.39;99876.16;2622081;47;20037;-67
2022/02/09 12:42:37;;;;;;;5.70;2.45;;;;;;;12.28;57.24;99884.13;2623327;54;20038;-64
2022/02/09 12:45:10;;;;;;;4.60;2.05;;;;;;;12.33;57.39;99872.00;2622738;54;20027;-63
2022/02/09 12:47:41;;;;;;;2.72;1.70;;;;;;;12.35;57.14;99869.97;2621922;54;20031;-64
2022/02/09 12:50:13;;;;;;;3.15;1.75;;;;;;;12.46;57.04;99859.97;2623477;54;20038;-66
2022/02/09 12:52:46;;;;;;;6.65;1.65;;;;;;;12.54;56.73;99859.91;2623360;54;20057;-65
2022/02/09 12:55:20;;;;;;;3.20;2.05;;;;;;;12.53;56.52;99860.88;2623739;54;20034;-64
2022/02/09 12:57:53;;;;;;;5.07;1.83;;;;;;;12.48;56.89;99858.75;2622826;54;20035;-64
2022/02/09 13:00:28;;;;;;;6.85;2.45;;;;;;;12.48;56.58;99853.47;2621601;39;20425;-64
2022/02/09 13:03:00;;;;;;;3.38;1.98;;;;;;;12.58;56.69;99845.28;2618461;54;20026;-63
2022/02/09 13:05:30;;;;;;;3.65;2.03;;;;;;;12.63;56.16;99851.66;2618937;54;20030;-64
2022/02/09 13:08:02;;;;;;;7.13;2.05;;;;;;;12.71;55.90;99853.44;2619128;39;20398;-63
2022/02/09 13:10:36;;;;;;;5.20;2.10;;;;;;;12.66;55.73;99852.34;2619088;54;20041;-63
2022/02/09 13:13:11;;;;;;;6.03;2.10;;;;;;;12.70;55.67;99841.16;2619163;54;20081;-64
2022/02/09 13:15:47;;;;;;;3.40;1.80;;;;;;;12.76;55.33;99839.63;2618081;54;20061;-64
2022/02/09 13:18:47;;;;;;;2.90;1.70;;;;;;;12.78;55.08;99832.31;2618212;54;20061;-64
2022/02/09 13:24:35;;;;;;;3.83;1.83;;;;;;;12.80;55.51;99828.44;2618420;54;20038;-62
2022/02/09 13:52:30;;;;;;;3.95;1.40;;;;;;;12.80;54.17;99815.19;2618340;54;20038;-63
2022/02/09 14:11:38;;;;;;;2.78;1.65;;;;;;;12.92;53.44;99785.53;2619057;54;20051;-64
2022/02/09 14:55:16;;;;;;;2.78;1.40;;;;;;;12.60;52.55;99775.09;2617969;54;20085;-64
2022/02/09 14:57:59;;;;;;;3.47;1.70;;;;;;;12.62;53.13;99769.63;2618440;54;20056;-65
2022/02/09 15:00:29;;;;;;;3.00;1.50;;;;;;;12.62;52.95;99764.31;2618513;54;20050;-64
2022/02/09 15:03:16;;;;;;;2.78;1.60;;;;;;;12.64;52.59;99770.25;2618138;39;20406;-64
2022/02/09 15:08:49;;;;;;;2.70;1.50;;;;;;;12.57;52.94;99766.69;2618653;54;20041;-64
2022/02/09 15:11:27;;;;;;;3.53;1.92;;;;;;;12.59;53.08;99768.16;2618321;54;20577;-64
2022/02/09 15:14:08;;;;;;;2.03;1.50;;;;;;;12.59;53.18;99767.34;2618370;39;20426;-65
2022/02/09 15:16:47;;;;;;;3.58;2.38;;;;;;;12.59;53.28;99764.69;2618379;54;20027;-65
2022/02/09 15:19:28;;;;;;;3.40;2.00;;;;;;;12.55;53.15;99755.44;2618840;54;20034;-64
2022/02/09 15:22:06;;;;;;;5.50;1.60;;;;;;;12.53;52.79;99760.94;2618675;54;20042;-65
2022/02/09 15:24:40;;;;;;;3.40;1.88;;;;;;;12.46;53.55;99761.84;2618345;54;20045;-64
2022/02/09 15:27:13;;;;;;;3.97;2.05;;;;;;;12.44;53.48;99759.34;2619258;54;20548;-65
2022/02/09 15:29:43;;;;;;;7.03;4.45;;;;;;;12.37;53.93;99756.63;2619614;54;20073;-65
2022/02/09 15:32:22;;;;;;;3.55;2.17;;;;;;;12.34;53.63;99758.81;2619103;54;20026;-64
2022/02/09 15:34:55;;;;;;;7.22;5.93;;;;;;;12.30;53.99;99747.72;2618339;54;20034;-64
2022/02/09 15:37:41;;;;;;;2.23;2.00;;;;;;;12.22;53.59;99747.81;2618481;39;20445;-65
2022/02/09 15:40:25;;;;;;;11.70;5.97;;;;;;;12.21;54.16;99751.47;2619190;54;20034;-64
2022/02/09 15:43:15;;;;;;;4.35;1.70;;;;;;;12.19;53.73;99745.50;2619034;54;20546;-64
2022/02/09 15:56:49;;;;;;;4.32;2.75;;;;;;;11.80;53.95;99741.19;2619010;54;20034;-64
2022/02/09 15:59:42;;;;;;;6.50;3.67;;;;;;;11.72;53.88;99743.06;2618892;54;20046;-64
2022/02/09 16:10:46;;;;;;;3.72;2.75;;;;;;;11.47;54.53;99735.31;2619861;54;20030;-64
2022/02/09 16:24:16;;;;;;;10.25;5.32;;;;;;;11.21;55.32;99742.72;2618808;54;20042;-65
2022/02/09 16:37:50;;;;;;;9.77;6.05;;;;;;;11.02;55.51;99733.38;2619102;54;20568;-64
2022/02/09 16:46:02;;;;;;;10.48;6.85;;;;;;;10.85;55.88;99733.44;2619667;54;20063;-65
2022/02/09 16:48:33;;;;;;;7.78;4.53;;;;;;;10.80;56.06;99749.00;2619431;39;20430;-65
2022/02/09 16:51:11;;;;;;;8.13;5.55;;;;;;;10.77;56.25;99743.25;2619294;54;20564;-64
2022/02/09 16:53:49;;;;;;;25.13;12.90;;;;;;;10.73;56.34;99744.56;2618202;54;20026;-63
2022/02/09 16:56:28;;;;;;;14.70;7.55;;;;;;;10.72;56.00;99742.94;2618876;54;20049;-65
2022/02/09 17:15:40;;;;;;;18.27;11.48;;;;;;;10.36;57.02;99753.91;2618708;54;20034;-64
2022/02/09 23:02:38;;;;;;;11.02;6.20;;;;;;;4.66;72.54;99609.31;2604822;46;20030;-64
2022/02/09 23:05:30;;;;;;;9.52;6.80;;;;;;;4.63;72.66;99605.16;2618653;39;20375;-63
2022/02/09 23:08:15;;;;;;;8.52;6.30;;;;;;;4.61;72.86;99596.63;2618322;54;20046;-63
2022/02/09 23:11:05;;;;;;;10.15;7.28;;;;;;;4.57;72.54;99604.88;2618132;54;20027;-62
2022/02/09 23:13:44;;;;;;;12.13;7.07;;;;;;;4.55;72.96;99598.97;2617998;54;20031;-63
2022/02/09 23:16:23;;;;;;;9.90;6.75;;;;;;;4.55;73.05;99594.53;2618144;54;20049;-63
2022/02/09 23:19:57;;;;;;;12.23;7.22;;;;;;;4.54;73.23;99595.50;2618025;54;20034;-63
2022/02/09 23:28:17;;;;;;;13.70;5.90;;;;;;;4.67;72.62;99590.03;2619149;39;20460;-64
2022/02/09 23:58:23;;;;;;;9.00;5.43;;;;;;;5.43;69.71;99563.94;2618493;39;20445;-64
